Time;durP1;ratioP1;P1;durP2;ratioP2;P2;SDS_P1;SDS_P2;PMS_P1;PMS_P2;Temp;Humidity;BMP_temperature;BMP_pressure;BME280_temperature;BME280_humidity;BME280_pressure;Samples;Min_cycle;Max_cycle;Signal;HPM_P1;HPM_P2
2023/03/10 00:02:04;;;;;;;18.70;12.50;;;;;;;;;;5128764;27;20049;-62
2023/03/10 00:04:30;;;;;;;19.95;12.45;;;;;;;;;;5131577;27;20482;-62
2023/03/10 00:06:56;;;;;;;17.95;13.10;;;;;;;;;;5135734;27;20066;-62
2023/03/10 00:09:22;;;;;;;20.77;14.48;;;;;;;;;;5133343;27;20462;-62
2023/03/10 00:11:48;;;;;;;19.08;12.95;;;;;;;;;;5137944;27;20164;-62
2023/03/10 00:14:14;;;;;;;20.65;14.32;;;;;;;;;;5131013;27;20117;-63
2023/03/10 00:16:40;;;;;;;22.98;15.23;;;;;;;;;;5135781;27;20053;-62
2023/03/10 00:19:06;;;;;;;22.30;14.43;;;;;;;;;;5133135;27;20146;-62
2023/03/10 00:21:33;;;;;;;22.10;14.07;;;;;;;;;;5138012;27;20042;-62
2023/03/10 00:23:59;;;;;;;23.45;16.05;;;;;;;;;;5133253;27;20104;-62
2023/03/10 00:26:26;;;;;;;21.48;14.10;;;;;;;;;;5136568;27;20043;-63
2023/03/10 00:28:52;;;;;;;22.25;15.13;;;;;;;;;;5135122;27;20104;-62
2023/03/10 00:31:22;;;;;;;22.60;15.25;;;;;;;;;;5137045;27;20058;-62
2023/03/10 00:33:49;;;;;;;22.70;14.88;;;;;;;;;;5133497;27;20118;-63
2023/03/10 00:36:17;;;;;;;21.63;15.68;;;;;;;;;;5114353;27;20043;-63
2023/03/10 00:38:43;;;;;;;23.40;15.63;;;;;;;;;;5137370;27;20065;-63
2023/03/10 00:41:11;;;;;;;22.55;15.90;;;;;;;;;;5132217;27;20035;-63
2023/03/10 00:43:37;;;;;;;23.63;16.02;;;;;;;;;;5133424;27;20186;-63
2023/03/10 00:46:04;;;;;;;22.13;15.80;;;;;;;;;;5132252;27;20073;-63
2023/03/10 00:48:30;;;;;;;20.63;14.32;;;;;;;;;;5132017;27;20397;-63
2023/03/10 00:50:56;;;;;;;19.33;14.30;;;;;;;;;;5133063;27;20539;-63
2023/03/10 00:53:23;;;;;;;21.73;15.95;;;;;;;;;;5132398;27;20035;-63
2023/03/10 00:56:03;;;;;;;20.17;14.10;;;;;;;;;;5133222;27;20451;-63
2023/03/10 00:58:29;;;;;;;18.25;12.90;;;;;;;;;;5132179;27;20088;-63
2023/03/10 01:00:55;;;;;;;16.48;12.70;;;;;;;;;;5133504;27;20038;-63
2023/03/10 01:03:22;;;;;;;17.75;12.98;;;;;;;;;;5131134;27;20074;-63
2023/03/10 01:05:49;;;;;;;18.23;12.88;;;;;;;;;;5134366;27;20039;-63
2023/03/10 01:08:15;;;;;;;15.88;12.00;;;;;;;;;;5131388;27;20138;-63
2023/03/10 01:10:41;;;;;;;17.42;11.88;;;;;;;;;;5133493;27;20035;-63
2023/03/10 01:13:07;;;;;;;14.32;10.30;;;;;;;;;;5131289;27;20438;-63
2023/03/10 01:15:33;;;;;;;12.23;9.43;;;;;;;;;;5132610;27;20421;-63
2023/03/10 01:18:02;;;;;;;13.65;10.02;;;;;;;;;;5132005;27;20043;-63
2023/03/10 01:20:28;;;;;;;13.55;9.48;;;;;;;;;;5132276;27;20043;-64
2023/03/10 01:22:54;;;;;;;10.93;8.30;;;;;;;;;;5133199;27;20038;-64
2023/03/10 01:25:20;;;;;;;12.40;9.15;;;;;;;;;;5131145;27;20035;-64
2023/03/10 01:27:46;;;;;;;10.30;8.35;;;;;;;;;;5133609;27;20566;-64
2023/03/10 01:30:13;;;;;;;12.13;8.95;;;;;;;;;;5131167;27;20039;-64
2023/03/10 01:32:39;;;;;;;13.38;8.90;;;;;;;;;;5127827;27;20042;-64
2023/03/10 01:35:06;;;;;;;12.57;8.82;;;;;;;;;;5132213;27;20041;-64
2023/03/10 01:37:32;;;;;;;13.10;9.27;;;;;;;;;;5134413;27;20049;-64
2023/03/10 01:39:58;;;;;;;13.52;9.15;;;;;;;;;;5133172;27;20047;-64
2023/03/10 01:42:24;;;;;;;11.80;8.38;;;;;;;;;;5133055;27;20562;-64
2023/03/10 01:45:04;;;;;;;9.35;7.65;;;;;;;;;;5135167;27;20121;-64
2023/03/10 01:47:30;;;;;;;11.93;8.95;;;;;;;;;;5138307;27;20053;-64
2023/03/10 01:49:56;;;;;;;11.15;8.30;;;;;;;;;;5137708;27;20075;-64
2023/03/10 01:52:24;;;;;;;12.35;9.35;;;;;;;;;;5132632;27;20054;-64
2023/03/10 01:54:58;;;;;;;12.13;8.90;;;;;;;;;;5132717;27;20035;-64
2023/03/10 01:57:27;;;;;;;12.82;9.57;;;;;;;;;;5129306;27;20055;-64
2023/03/10 01:59:55;;;;;;;13.48;10.18;;;;;;;;;;5113749;27;20096;-64
2023/03/10 02:02:21;;;;;;;12.30;9.27;;;;;;;;;;5136065;27;20126;-64
2023/03/10 02:04:48;;;;;;;11.27;8.45;;;;;;;;;;5134636;27;20047;-64
2023/03/10 02:07:16;;;;;;;12.25;9.30;;;;;;;;;;5129921;27;20043;-64
2023/03/10 02:09:43;;;;;;;12.25;8.82;;;;;;;;;;5135031;27;20104;-64
2023/03/10 02:12:10;;;;;;;12.27;8.95;;;;;;;;;;5134674;27;20051;-64
2023/03/10 02:14:36;;;;;;;13.20;9.50;;;;;;;;;;5137386;27;20581;-64
2023/03/10 02:17:07;;;;;;;11.90;9.40;;;;;;;;;;5137750;27;20038;-64
2023/03/10 02:19:37;;;;;;;13.52;9.43;;;;;;;;;;5136216;27;21524;-64
2023/03/10 02:22:05;;;;;;;12.27;9.60;;;;;;;;;;5138023;27;20047;-64
2023/03/10 02:24:34;;;;;;;13.38;9.52;;;;;;;;;;5137719;27;20811;-64
2023/03/10 02:27:21;;;;;;;12.57;9.43;;;;;;;;;;5138402;27;20039;-62
2023/03/10 02:30:23;;;;;;;13.48;10.32;;;;;;;;;;5135221;27;20047;-62
2023/03/10 02:32:51;;;;;;;13.90;9.82;;;;;;;;;;5016887;28;20128;-62
2023/03/10 02:35:17;;;;;;;13.20;9.95;;;;;;;;;;5115065;27;20401;-62
2023/03/10 02:37:43;;;;;;;13.45;10.02;;;;;;;;;;5140525;27;20066;-62
2023/03/10 02:40:31;;;;;;;13.30;9.00;;;;;;;;;;5113598;27;20085;-62
2023/03/10 02:42:58;;;;;;;12.82;9.50;;;;;;;;;;5135461;27;20081;-62
2023/03/10 02:45:25;;;;;;;12.73;9.20;;;;;;;;;;5138935;27;20538;-62
2023/03/10 02:47:51;;;;;;;10.63;8.02;;;;;;;;;;5136077;27;20037;-62
2023/03/10 02:50:17;;;;;;;10.85;8.07;;;;;;;;;;5134051;27;20446;-62
2023/03/10 02:52:46;;;;;;;10.15;7.78;;;;;;;;;;5136621;27;20050;-61
2023/03/10 02:55:16;;;;;;;13.68;10.90;;;;;;;;;;5133951;27;20049;-61
2023/03/10 02:57:42;;;;;;;11.75;8.82;;;;;;;;;;5136048;27;20041;-62
2023/03/10 03:00:10;;;;;;;10.68;8.30;;;;;;;;;;5135289;27;20406;-62
2023/03/10 03:02:36;;;;;;;12.23;8.88;;;;;;;;;;5134056;27;20050;-62
2023/03/10 03:05:02;;;;;;;12.07;8.65;;;;;;;;;;5135089;27;20125;-62
2023/03/10 03:07:28;;;;;;;13.40;10.02;;;;;;;;;;5134332;27;20568;-61
2023/03/10 03:09:54;;;;;;;15.30;10.32;;;;;;;;;;5134662;27;20042;-62
2023/03/10 03:12:20;;;;;;;13.82;10.15;;;;;;;;;;5133522;27;20466;-62
2023/03/10 03:14:47;;;;;;;11.93;9.48;;;;;;;;;;5136148;27;20066;-62
2023/03/10 03:17:13;;;;;;;13.85;10.10;;;;;;;;;;5133793;27;20482;-62
2023/03/10 03:19:40;;;;;;;13.35;9.57;;;;;;;;;;5135247;27;20039;-61
2023/03/10 03:22:06;;;;;;;15.48;10.30;;;;;;;;;;5135894;27;20327;-62
2023/03/10 03:24:32;;;;;;;13.68;10.70;;;;;;;;;;5114590;27;20085;-62
2023/03/10 03:26:58;;;;;;;13.98;10.43;;;;;;;;;;5135608;27;20082;-63
2023/03/10 03:29:24;;;;;;;15.32;10.80;;;;;;;;;;5133730;27;20039;-62
2023/03/10 03:31:50;;;;;;;15.68;11.20;;;;;;;;;;5134393;27;20034;-62
2023/03/10 03:34:16;;;;;;;14.68;10.80;;;;;;;;;;5133019;27;20501;-62
2023/03/10 03:36:43;;;;;;;18.08;12.60;;;;;;;;;;5135307;27;20042;-62
2023/03/10 03:39:09;;;;;;;18.10;12.20;;;;;;;;;;5132499;27;20035;-62
2023/03/10 03:41:35;;;;;;;15.75;11.20;;;;;;;;;;5133584;27;20055;-62
2023/03/10 03:44:02;;;;;;;18.05;13.15;;;;;;;;;;5135080;27;20809;-62
2023/03/10 03:46:28;;;;;;;16.58;11.55;;;;;;;;;;5132853;27;20069;-62
2023/03/10 03:48:54;;;;;;;18.80;11.63;;;;;;;;;;5134519;27;20473;-62
2023/03/10 03:51:20;;;;;;;16.40;12.18;;;;;;;;;;5132225;27;20046;-62
2023/03/10 03:53:46;;;;;;;17.38;13.02;;;;;;;;;;5134896;27;20049;-62
2023/03/10 03:56:12;;;;;;;16.85;11.95;;;;;;;;;;5133040;27;20493;-62
2023/03/10 03:58:38;;;;;;;15.40;11.75;;;;;;;;;;5132872;27;20095;-62
2023/03/10 04:01:04;;;;;;;17.80;12.77;;;;;;;;;;5133851;27;20098;-62
2023/03/10 04:03:30;;;;;;;14.82;10.80;;;;;;;;;;5133286;27;20070;-62
2023/03/10 04:05:56;;;;;;;15.18;10.85;;;;;;;;;;5134324;27;20488;-62
2023/03/10 04:08:22;;;;;;;18.08;11.40;;;;;;;;;;5132495;27;20047;-62
2023/03/10 04:10:52;;;;;;;16.35;11.80;;;;;;;;;;5136890;27;20111;-62
2023/03/10 04:13:18;;;;;;;19.63;13.27;;;;;;;;;;5131751;27;20043;-62
2023/03/10 04:15:44;;;;;;;15.93;12.50;;;;;;;;;;5134482;27;20054;-62
2023/03/10 04:18:10;;;;;;;18.20;12.35;;;;;;;;;;5133308;27;20126;-62
2023/03/10 04:20:36;;;;;;;14.60;10.18;;;;;;;;;;5132120;27;20039;-62
2023/03/10 04:23:03;;;;;;;13.30;9.55;;;;;;;;;;5133830;27;20035;-62
2023/03/10 04:25:29;;;;;;;16.40;11.32;;;;;;;;;;5132837;27;20048;-63
2023/03/10 04:27:56;;;;;;;13.07;10.20;;;;;;;;;;5133612;27;20047;-63
2023/03/10 04:30:27;;;;;;;14.23;10.55;;;;;;;;;;5132082;27;20039;-63
2023/03/10 04:32:56;;;;;;;13.45;10.18;;;;;;;;;;5133566;27;20051;-63
2023/03/10 04:35:22;;;;;;;16.00;11.85;;;;;;;;;;5130912;27;20043;-63
2023/03/10 04:37:48;;;;;;;15.60;11.75;;;;;;;;;;5134022;27;20042;-63
2023/03/10 04:40:14;;;;;;;20.05;12.82;;;;;;;;;;5132475;27;20038;-63
2023/03/10 04:42:41;;;;;;;18.80;12.70;;;;;;;;;;5132027;27;20579;-63
2023/03/10 04:45:07;;;;;;;17.58;13.23;;;;;;;;;;5132661;27;20519;-63
2023/03/10 04:47:33;;;;;;;18.70;13.07;;;;;;;;;;5131641;27;20074;-63
2023/03/10 04:49:59;;;;;;;16.67;11.55;;;;;;;;;;5133965;27;20701;-63
2023/03/10 04:52:25;;;;;;;20.38;13.88;;;;;;;;;;5131263;27;20130;-63
2023/03/10 04:54:51;;;;;;;17.48;12.40;;;;;;;;;;5133958;27;20039;-63
2023/03/10 04:57:17;;;;;;;21.52;14.50;;;;;;;;;;5132570;27;20049;-63
2023/03/10 04:59:43;;;;;;;25.80;16.58;;;;;;;;;;5134183;27;20043;-63
2023/03/10 05:02:09;;;;;;;25.40;16.13;;;;;;;;;;5113795;27;20047;-63
2023/03/10 05:04:35;;;;;;;26.25;16.55;;;;;;;;;;5113412;27;20439;-63
2023/03/10 05:07:01;;;;;;;27.30;17.90;;;;;;;;;;5133445;27;20793;-63
2023/03/10 05:09:27;;;;;;;31.10;19.08;;;;;;;;;;5131044;27;20081;-63
2023/03/10 05:11:53;;;;;;;30.67;19.23;;;;;;;;;;5133808;27;20507;-63
2023/03/10 05:14:19;;;;;;;33.65;21.23;;;;;;;;;;5131603;27;20042;-63
2023/03/10 05:16:47;;;;;;;33.58;20.00;;;;;;;;;;5132454;27;20401;-63
2023/03/10 05:19:13;;;;;;;31.08;18.85;;;;;;;;;;5133389;27;20051;-63
2023/03/10 05:21:39;;;;;;;33.47;20.05;;;;;;;;;;5131654;27;20045;-62
2023/03/10 05:24:05;;;;;;;28.63;17.95;;;;;;;;;;5133858;27;20047;-62
2023/03/10 05:26:31;;;;;;;27.77;17.05;;;;;;;;;;5139184;27;20054;-63
2023/03/10 05:28:57;;;;;;;32.45;19.95;;;;;;;;;;5134728;27;20210;-62
2023/03/10 05:31:26;;;;;;;31.20;19.42;;;;;;;;;;5137047;27;20045;-63
2023/03/10 05:33:53;;;;;;;32.45;19.70;;;;;;;;;;5133328;27;20045;-62
2023/03/10 05:36:20;;;;;;;29.02;18.02;;;;;;;;;;5137885;27;20050;-63
2023/03/10 05:38:46;;;;;;;32.10;19.15;;;;;;;;;;5135619;27;20063;-62
2023/03/10 05:41:12;;;;;;;33.42;20.45;;;;;;;;;;5135914;27;20058;-63
2023/03/10 05:43:38;;;;;;;31.63;19.42;;;;;;;;;;5137920;27;20046;-63
2023/03/10 05:46:04;;;;;;;28.70;18.73;;;;;;;;;;5136909;27;20035;-63
2023/03/10 05:48:31;;;;;;;33.97;20.55;;;;;;;;;;5143267;27;20366;-62
2023/03/10 05:51:04;;;;;;;29.33;18.77;;;;;;;;;;5133092;27;20686;-62
2023/03/10 05:53:30;;;;;;;31.05;19.58;;;;;;;;;;5137416;27;20668;-63
2023/03/10 05:55:57;;;;;;;26.67;17.70;;;;;;;;;;5140821;27;20519;-62
2023/03/10 05:58:23;;;;;;;27.67;17.17;;;;;;;;;;5137476;27;20045;-62
2023/03/10 06:00:50;;;;;;;25.98;15.88;;;;;;;;;;5137229;27;20042;-62
2023/03/10 06:03:16;;;;;;;22.58;14.85;;;;;;;;;;5134382;27;20047;-62
2023/03/10 06:05:42;;;;;;;22.65;14.32;;;;;;;;;;5138425;27;20043;-62
2023/03/10 06:08:08;;;;;;;24.45;15.00;;;;;;;;;;5135099;27;20054;-62
2023/03/10 06:10:34;;;;;;;19.77;13.63;;;;;;;;;;5131940;27;20051;-62
2023/03/10 06:13:00;;;;;;;18.30;13.05;;;;;;;;;;5137561;27;20038;-63
2023/03/10 06:15:26;;;;;;;21.25;13.32;;;;;;;;;;5136641;27;20043;-63
2023/03/10 06:17:52;;;;;;;20.90;14.32;;;;;;;;;;5138751;27;20551;-62
2023/03/10 06:20:18;;;;;;;18.05;13.25;;;;;;;;;;5138902;27;20043;-62
2023/03/10 06:22:44;;;;;;;20.73;14.20;;;;;;;;;;5140086;27;20075;-62
2023/03/10 06:25:10;;;;;;;22.10;13.60;;;;;;;;;;5138698;27;20035;-62
2023/03/10 06:27:36;;;;;;;19.92;13.90;;;;;;;;;;5141059;27;20985;-62
2023/03/10 06:30:03;;;;;;;18.73;12.50;;;;;;;;;;5141478;27;20404;-62
2023/03/10 06:32:29;;;;;;;17.80;11.75;;;;;;;;;;5139968;27;20043;-62
2023/03/10 06:34:57;;;;;;;21.27;13.38;;;;;;;;;;5141017;27;20043;-62
2023/03/10 06:37:23;;;;;;;19.80;13.05;;;;;;;;;;5141101;27;20129;-62
2023/03/10 06:39:49;;;;;;;21.80;13.20;;;;;;;;;;5139916;27;20118;-62
2023/03/10 06:42:15;;;;;;;21.38;13.15;;;;;;;;;;5140158;27;20051;-62
2023/03/10 06:44:41;;;;;;;21.13;13.90;;;;;;;;;;5137871;27;20042;-62
2023/03/10 06:47:07;;;;;;;22.70;13.95;;;;;;;;;;5136613;27;20050;-61
2023/03/10 06:49:33;;;;;;;20.98;13.35;;;;;;;;;;5145077;27;20429;-62
2023/03/10 06:52:00;;;;;;;17.40;11.40;;;;;;;;;;5136278;27;20524;-63
2023/03/10 06:54:26;;;;;;;18.00;11.40;;;;;;;;;;5138619;27;20095;-62
2023/03/10 06:56:52;;;;;;;20.70;12.80;;;;;;;;;;5136109;27;20043;-62
2023/03/10 06:59:18;;;;;;;14.75;10.07;;;;;;;;;;5138310;27;20046;-62
2023/03/10 07:01:44;;;;;;;13.77;9.25;;;;;;;;;;5136035;27;20047;-63
2023/03/10 07:04:11;;;;;;;14.35;9.10;;;;;;;;;;5137778;27;20398;-62
2023/03/10 07:06:37;;;;;;;11.15;8.30;;;;;;;;;;5119888;27;20104;-62
2023/03/10 07:09:04;;;;;;;11.38;8.15;;;;;;;;;;5138119;27;20613;-62
2023/03/10 07:11:30;;;;;;;13.15;8.88;;;;;;;;;;5119335;27;20046;-63
2023/03/10 07:13:56;;;;;;;16.20;10.98;;;;;;;;;;5139919;27;20074;-62
2023/03/10 07:16:22;;;;;;;17.05;11.32;;;;;;;;;;5133918;27;20043;-62
2023/03/10 07:18:48;;;;;;;16.10;10.10;;;;;;;;;;5138843;27;20046;-62
2023/03/10 07:21:19;;;;;;;16.52;10.88;;;;;;;;;;5139260;27;20053;-62
2023/03/10 07:23:45;;;;;;;14.98;9.65;;;;;;;;;;5135754;27;20339;-62
2023/03/10 07:26:13;;;;;;;15.60;10.48;;;;;;;;;;5132449;27;20042;-62
2023/03/10 07:28:39;;;;;;;14.65;10.52;;;;;;;;;;5137770;27;20493;-62
2023/03/10 07:31:10;;;;;;;18.10;11.93;;;;;;;;;;5136846;27;20035;-62
2023/03/10 07:33:37;;;;;;;17.92;11.82;;;;;;;;;;5137000;27;20126;-62
2023/03/10 07:36:07;;;;;;;20.00;13.15;;;;;;;;;;5139307;27;20055;-62
2023/03/10 07:38:33;;;;;;;17.67;11.93;;;;;;;;;;5132451;27;20047;-62
2023/03/10 07:40:59;;;;;;;19.70;12.57;;;;;;;;;;5135208;27;20042;-62
2023/03/10 07:43:25;;;;;;;18.60;13.20;;;;;;;;;;5138746;27;20062;-62
2023/03/10 07:45:51;;;;;;;18.02;12.45;;;;;;;;;;5134928;27;20455;-63
2023/03/10 07:48:17;;;;;;;18.65;12.18;;;;;;;;;;5134215;27;20046;-62
2023/03/10 07:50:43;;;;;;;15.90;10.70;;;;;;;;;;5135603;27;20050;-62
2023/03/10 07:53:09;;;;;;;15.57;11.13;;;;;;;;;;5134109;27;20048;-62
2023/03/10 07:55:37;;;;;;;14.00;10.10;;;;;;;;;;5117593;27;20133;-62
2023/03/10 07:58:03;;;;;;;18.30;12.25;;;;;;;;;;5135833;27;20054;-62
2023/03/10 08:00:29;;;;;;;17.95;12.23;;;;;;;;;;5132512;27;20274;-62
2023/03/10 08:02:55;;;;;;;21.52;13.73;;;;;;;;;;5130464;27;20436;-63
2023/03/10 08:05:21;;;;;;;20.85;13.48;;;;;;;;;;5140564;27;20068;-63
2023/03/10 08:07:47;;;;;;;20.85;13.88;;;;;;;;;;5129801;27;20047;-63
2023/03/10 08:10:13;;;;;;;17.70;12.13;;;;;;;;;;5131276;27;20546;-62
2023/03/10 08:12:39;;;;;;;18.30;11.98;;;;;;;;;;5106839;27;20410;-63
2023/03/10 08:15:05;;;;;;;22.08;13.25;;;;;;;;;;5136337;27;20479;-63
2023/03/10 08:17:32;;;;;;;20.92;14.00;;;;;;;;;;5142727;27;20042;-63
2023/03/10 08:19:58;;;;;;;17.85;12.77;;;;;;;;;;5140681;27;20515;-63
2023/03/10 08:22:24;;;;;;;18.30;11.88;;;;;;;;;;5134692;27;20462;-62
2023/03/10 08:24:50;;;;;;;20.70;13.07;;;;;;;;;;5143254;27;20076;-63
2023/03/10 08:27:17;;;;;;;17.92;12.20;;;;;;;;;;5136824;27;20042;-63
2023/03/10 08:29:42;;;;;;;17.88;11.32;;;;;;;;;;5136791;27;20154;-64
2023/03/10 08:32:08;;;;;;;18.92;13.15;;;;;;;;;;5132042;27;20130;-63
2023/03/10 08:34:35;;;;;;;20.00;14.23;;;;;;;;;;5125769;27;20057;-63
2023/03/10 08:37:01;;;;;;;18.88;13.15;;;;;;;;;;5135781;27;20103;-63
2023/03/10 08:39:28;;;;;;;24.63;14.77;;;;;;;;;;5139020;27;20047;-63
2023/03/10 08:41:54;;;;;;;22.23;14.80;;;;;;;;;;5133841;27;20031;-63
2023/03/10 08:44:21;;;;;;;23.40;15.10;;;;;;;;;;5142026;27;20493;-63
2023/03/10 08:46:47;;;;;;;18.80;13.13;;;;;;;;;;5132259;27;20083;-63
2023/03/10 08:49:14;;;;;;;20.58;13.98;;;;;;;;;;5140730;27;20051;-63
2023/03/10 08:51:41;;;;;;;23.13;14.85;;;;;;;;;;5135405;27;20081;-63
2023/03/10 08:54:07;;;;;;;21.08;15.57;;;;;;;;;;5125395;27;20579;-63
2023/03/10 08:56:33;;;;;;;19.35;13.85;;;;;;;;;;5126546;27;20043;-63
2023/03/10 08:58:59;;;;;;;25.75;17.17;;;;;;;;;;5126339;27;20078;-62
2023/03/10 09:01:32;;;;;;;24.02;15.95;;;;;;;;;;5132242;27;20047;-62
2023/03/10 09:03:59;;;;;;;22.48;14.98;;;;;;;;;;5147296;27;20038;-63
2023/03/10 09:06:25;;;;;;;23.73;15.20;;;;;;;;;;5146641;27;20099;-62
2023/03/10 09:08:51;;;;;;;23.90;15.52;;;;;;;;;;5129254;27;20729;-62
2023/03/10 09:11:22;;;;;;;25.83;15.85;;;;;;;;;;5129334;27;20047;-62
2023/03/10 09:13:48;;;;;;;22.92;15.68;;;;;;;;;;5131435;27;20047;-62
2023/03/10 09:16:14;;;;;;;23.58;16.98;;;;;;;;;;5135258;27;20039;-62
2023/03/10 09:18:40;;;;;;;20.02;14.38;;;;;;;;;;5139922;27;20074;-63
2023/03/10 09:21:07;;;;;;;21.83;14.52;;;;;;;;;;5147762;27;20270;-62
2023/03/10 09:23:33;;;;;;;20.65;14.65;;;;;;;;;;5146292;27;20039;-61
2023/03/10 09:25:59;;;;;;;23.05;15.07;;;;;;;;;;5147037;27;20045;-64
2023/03/10 09:28:25;;;;;;;24.67;15.15;;;;;;;;;;5140173;27;20051;-60
2023/03/10 09:30:53;;;;;;;23.33;14.38;;;;;;;;;;5141085;27;20072;-60
2023/03/10 09:33:20;;;;;;;26.27;15.15;;;;;;;;;;5143793;27;20054;-56
2023/03/10 09:35:47;;;;;;;22.80;14.50;;;;;;;;;;5148269;27;20067;-60
2023/03/10 09:38:13;;;;;;;19.90;13.93;;;;;;;;;;5152842;27;20458;-62
2023/03/10 09:40:42;;;;;;;17.90;12.80;;;;;;;;;;5145232;27;20043;-62
2023/03/10 09:43:14;;;;;;;20.92;14.07;;;;;;;;;;5131901;27;20042;-62
2023/03/10 09:46:04;;;;;;;19.90;13.18;;;;;;;;;;5116063;27;20104;-62
2023/03/10 09:48:36;;;;;;;20.27;14.07;;;;;;;;;;5143604;27;20588;-62
2023/03/10 09:51:05;;;;;;;22.27;13.40;;;;;;;;;;5141249;27;20054;-61
2023/03/10 09:53:31;;;;;;;20.77;13.55;;;;;;;;;;5136359;27;20049;-61
2023/03/10 09:55:57;;;;;;;21.85;13.95;;;;;;;;;;5136647;27;20499;-62
2023/03/10 09:58:30;;;;;;;21.83;14.13;;;;;;;;;;5132232;27;20042;-61
2023/03/10 10:00:57;;;;;;;20.70;13.77;;;;;;;;;;5140558;27;20068;-62
2023/03/10 10:03:30;;;;;;;21.40;13.68;;;;;;;;;;5132948;27;20501;-62
2023/03/10 10:05:56;;;;;;;22.40;13.63;;;;;;;;;;5146493;27;20142;-62
2023/03/10 10:08:25;;;;;;;21.38;13.27;;;;;;;;;;5140647;27;20051;-62
2023/03/10 10:10:55;;;;;;;24.85;15.23;;;;;;;;;;5143171;27;20061;-61
2023/03/10 10:13:24;;;;;;;20.15;13.73;;;;;;;;;;5115215;27;20051;-62
2023/03/10 10:15:53;;;;;;;23.25;14.88;;;;;;;;;;5139198;27;20046;-62
2023/03/10 10:18:25;;;;;;;23.70;15.25;;;;;;;;;;5143751;27;20046;-62
2023/03/10 10:20:59;;;;;;;20.25;14.27;;;;;;;;;;5143274;27;20046;-64
2023/03/10 10:23:33;;;;;;;20.25;13.90;;;;;;;;;;5151227;27;20069;-63
2023/03/10 10:26:01;;;;;;;24.42;15.55;;;;;;;;;;5143179;27;20039;-63
2023/03/10 10:28:32;;;;;;;21.42;14.98;;;;;;;;;;5143476;27;20084;-63
2023/03/10 10:31:15;;;;;;;23.25;15.93;;;;;;;;;;5135257;27;20050;-63
2023/03/10 10:33:58;;;;;;;24.65;16.30;;;;;;;;;;5137172;27;20072;-63
2023/03/10 10:36:25;;;;;;;23.42;15.40;;;;;;;;;;5148037;27;20038;-63
2023/03/10 10:38:53;;;;;;;24.58;15.95;;;;;;;;;;5116494;27;20422;-62
2023/03/10 10:41:20;;;;;;;25.10;16.13;;;;;;;;;;5143451;27;20043;-62
2023/03/10 10:43:47;;;;;;;24.85;15.27;;;;;;;;;;5128566;27;20478;-62
2023/03/10 10:46:14;;;;;;;21.88;15.82;;;;;;;;;;5131551;27;20079;-62
2023/03/10 10:48:41;;;;;;;21.77;14.65;;;;;;;;;;5125168;27;20054;-62
2023/03/10 10:51:27;;;;;;;23.52;15.27;;;;;;;;;;5145737;27;20038;-62
2023/03/10 10:53:54;;;;;;;23.85;15.73;;;;;;;;;;5136897;27;20513;-62
2023/03/10 10:56:22;;;;;;;25.50;17.00;;;;;;;;;;5132740;27;20409;-62
2023/03/10 10:59:00;;;;;;;23.38;15.18;;;;;;;;;;5135250;27;20488;-63
2023/03/10 11:01:26;;;;;;;25.58;16.02;;;;;;;;;;5126944;27;20101;-62
2023/03/10 11:04:05;;;;;;;25.42;15.18;;;;;;;;;;5142137;27;20035;-63
2023/03/10 11:06:33;;;;;;;20.02;13.50;;;;;;;;;;5133460;27;20104;-62
2023/03/10 11:09:07;;;;;;;20.65;14.45;;;;;;;;;;5138048;27;20132;-64
2023/03/10 11:12:02;;;;;;;21.25;14.52;;;;;;;;;;5143326;27;20103;-62
2023/03/10 11:14:48;;;;;;;20.92;14.13;;;;;;;;;;5111219;27;20501;-63
2023/03/10 11:17:20;;;;;;;22.80;15.57;;;;;;;;;;5136223;27;20078;-63
2023/03/10 11:19:49;;;;;;;21.13;14.63;;;;;;;;;;5136919;27;20451;-62
2023/03/10 11:22:32;;;;;;;22.90;15.63;;;;;;;;;;5135596;27;20073;-62
2023/03/10 11:25:01;;;;;;;24.42;15.85;;;;;;;;;;5135691;27;20465;-62
2023/03/10 11:27:34;;;;;;;23.55;14.70;;;;;;;;;;5137052;27;20047;-63
2023/03/10 11:30:00;;;;;;;23.70;16.75;;;;;;;;;;5138750;27;20046;-63
2023/03/10 11:32:32;;;;;;;20.83;14.00;;;;;;;;;;5114445;27;20458;-63
2023/03/10 11:34:58;;;;;;;24.38;16.02;;;;;;;;;;5143240;27;20775;-63
2023/03/10 11:37:28;;;;;;;21.40;14.52;;;;;;;;;;5132107;27;20426;-62
2023/03/10 11:40:06;;;;;;;21.05;13.73;;;;;;;;;;5131605;27;20035;-62
2023/03/10 11:42:51;;;;;;;22.58;14.43;;;;;;;;;;5135104;27;20055;-62
2023/03/10 11:45:22;;;;;;;26.08;16.08;;;;;;;;;;5111523;27;20526;-63
2023/03/10 11:47:51;;;;;;;22.80;16.20;;;;;;;;;;5129480;27;20047;-63
2023/03/10 11:50:37;;;;;;;20.80;14.63;;;;;;;;;;5136028;27;20058;-62
2023/03/10 11:53:09;;;;;;;25.77;16.80;;;;;;;;;;5127363;27;20051;-61
2023/03/10 11:55:35;;;;;;;22.40;15.38;;;;;;;;;;5127695;27;20039;-63
2023/03/10 11:58:03;;;;;;;24.65;16.13;;;;;;;;;;5126440;27;20043;-62
2023/03/10 12:00:35;;;;;;;27.52;18.63;;;;;;;;;;5127718;27;20040;-62
2023/03/10 12:03:01;;;;;;;25.40;17.48;;;;;;;;;;5127490;27;20047;-60
2023/03/10 12:05:30;;;;;;;24.25;15.63;;;;;;;;;;5127244;27;20055;-62
2023/03/10 12:08:00;;;;;;;23.17;16.75;;;;;;;;;;5126898;27;20043;-63
2023/03/10 12:10:26;;;;;;;23.92;16.67;;;;;;;;;;5138414;27;20061;-63
2023/03/10 12:12:56;;;;;;;24.42;17.17;;;;;;;;;;5126465;27;20050;-63
2023/03/10 12:15:29;;;;;;;25.40;17.33;;;;;;;;;;5108812;27;20054;-63
2023/03/10 12:17:55;;;;;;;23.35;15.38;;;;;;;;;;5138790;27;20418;-63
2023/03/10 12:20:21;;;;;;;25.85;17.95;;;;;;;;;;5136673;27;20046;-62
2023/03/10 12:22:49;;;;;;;22.75;15.98;;;;;;;;;;5136841;27;20039;-62
2023/03/10 12:25:32;;;;;;;24.27;17.15;;;;;;;;;;5140042;27;20154;-63
2023/03/10 12:27:57;;;;;;;;;;;;;;;;;;5136026;27;20453;-63
2023/03/10 12:30:42;;;;;;;27.20;17.58;;;;;;;;;;5140298;27;19923;-63
2023/03/10 12:33:28;;;;;;;23.23;16.23;;;;;;;;;;5135307;27;20096;-62
2023/03/10 12:35:57;;;;;;;26.17;16.85;;;;;;;;;;5145941;27;20031;-63
2023/03/10 12:38:29;;;;;;;24.48;16.90;;;;;;;;;;5132365;27;20056;-64
2023/03/10 12:40:55;;;;;;;25.65;17.05;;;;;;;;;;5136760;27;20034;-63
2023/03/10 12:43:40;;;;;;;23.92;16.20;;;;;;;;;;5141747;27;20091;-62
2023/03/10 12:46:09;;;;;;;24.05;16.25;;;;;;;;;;5130592;27;20039;-63
2023/03/10 12:48:39;;;;;;;25.77;16.52;;;;;;;;;;5142105;27;20160;-62
2023/03/10 12:51:13;;;;;;;25.15;15.70;;;;;;;;;;5130940;27;20187;-62
2023/03/10 12:53:49;;;;;;;21.75;15.40;;;;;;;;;;5134060;27;20060;-62
2023/03/10 12:56:15;;;;;;;23.55;15.30;;;;;;;;;;5139630;27;20058;-62
2023/03/10 12:58:45;;;;;;;23.17;15.13;;;;;;;;;;5136852;27;20489;-63
2023/03/10 13:01:13;;;;;;;24.85;16.30;;;;;;;;;;5136524;27;20043;-62
2023/03/10 13:03:41;;;;;;;23.23;15.48;;;;;;;;;;5139561;27;20043;-62
2023/03/10 13:06:20;;;;;;;24.95;17.00;;;;;;;;;;5133302;27;20039;-63
2023/03/10 13:09:02;;;;;;;24.52;15.18;;;;;;;;;;5130176;27;20047;-62
2023/03/10 13:11:34;;;;;;;21.98;14.93;;;;;;;;;;5142950;27;20124;-63
2023/03/10 13:14:00;;;;;;;;;;;;;;;;;;5139513;27;20045;-62
2023/03/10 13:16:26;;;;;;;24.73;15.45;;;;;;;;;;5141139;27;19923;-63
2023/03/10 13:18:53;;;;;;;25.20;15.10;;;;;;;;;;5145313;27;20489;-62
2023/03/10 13:21:28;;;;;;;28.45;16.20;;;;;;;;;;5140978;27;20045;-63
2023/03/10 13:23:54;;;;;;;24.60;16.15;;;;;;;;;;5145946;27;20039;-63
2023/03/10 13:26:21;;;;;;;27.67;17.40;;;;;;;;;;5146374;27;20042;-63
2023/03/10 13:28:51;;;;;;;24.23;16.35;;;;;;;;;;5144772;27;20107;-63
2023/03/10 13:31:20;;;;;;;29.30;17.60;;;;;;;;;;5138481;27;20387;-63
2023/03/10 13:33:47;;;;;;;26.77;18.70;;;;;;;;;;5138147;27;20062;-63
2023/03/10 13:36:25;;;;;;;26.35;16.65;;;;;;;;;;5139323;27;20051;-62
2023/03/10 13:38:52;;;;;;;24.05;16.92;;;;;;;;;;5145452;27;20046;-63
2023/03/10 13:41:18;;;;;;;23.92;16.23;;;;;;;;;;5133717;27;20207;-63
2023/03/10 13:43:48;;;;;;;20.15;15.43;;;;;;;;;;5139446;27;20485;-62
2023/03/10 13:46:33;;;;;;;23.35;15.85;;;;;;;;;;5133064;27;20050;-63
2023/03/10 13:49:02;;;;;;;22.70;16.15;;;;;;;;;;5137682;27;20477;-63
2023/03/10 13:51:30;;;;;;;21.27;16.00;;;;;;;;;;5134135;27;20086;-63
2023/03/10 13:54:02;;;;;;;22.13;15.32;;;;;;;;;;5142536;27;20091;-63
2023/03/10 13:56:33;;;;;;;22.00;15.23;;;;;;;;;;5141642;27;20099;-63
2023/03/10 13:59:00;;;;;;;19.55;14.10;;;;;;;;;;5131443;27;20096;-63
2023/03/10 14:01:28;;;;;;;18.17;13.68;;;;;;;;;;5138418;27;20042;-64
2023/03/10 14:03:54;;;;;;;18.92;13.93;;;;;;;;;;5143739;27;20042;-63
2023/03/10 14:06:21;;;;;;;19.77;13.25;;;;;;;;;;5145298;27;20047;-62
2023/03/10 14:08:48;;;;;;;15.98;12.18;;;;;;;;;;5149120;27;20066;-63
2023/03/10 14:11:30;;;;;;;17.50;12.50;;;;;;;;;;5147165;27;20054;-63
2023/03/10 14:13:56;;;;;;;13.43;10.40;;;;;;;;;;5148922;27;20057;-63
2023/03/10 14:16:42;;;;;;;12.13;9.00;;;;;;;;;;5148452;27;20074;-62
2023/03/10 14:19:09;;;;;;;16.25;11.05;;;;;;;;;;5147039;27;20046;-63
2023/03/10 14:21:35;;;;;;;18.90;12.23;;;;;;;;;;5148388;27;20059;-63
2023/03/10 14:24:02;;;;;;;15.02;11.77;;;;;;;;;;5147445;27;20091;-63
2023/03/10 14:26:28;;;;;;;15.07;10.95;;;;;;;;;;5147135;27;20055;-63